createdAt,value
2023-04-12T07:15:36.882Z,1004.80
2023-04-12T07:16:36.728Z,1004.79
2023-04-12T07:17:36.711Z,1004.77
2023-04-12T07:18:36.596Z,1004.68
2023-04-12T07:19:36.573Z,1004.68
2023-04-12T07:20:36.593Z,1004.65
2023-04-12T07:21:36.487Z,1004.66
2023-04-12T07:22:36.459Z,1004.64
2023-04-12T07:23:36.409Z,1004.63
2023-04-12T07:24:36.376Z,1004.57
2023-04-12T07:25:36.358Z,1004.57
2023-04-12T07:26:36.366Z,1004.54
2023-04-12T07:27:36.271Z,1004.62
2023-04-12T07:28:36.283Z,1004.55
2023-04-12T07:29:36.197Z,1004.52
2023-04-12T07:30:36.229Z,1004.50
2023-04-12T07:31:36.409Z,1004.48
2023-04-12T07:32:36.146Z,1004.43
2023-04-12T07:33:36.289Z,1004.46
2023-04-12T07:34:36.145Z,1004.43
2023-04-12T07:35:36.014Z,1004.38
2023-04-12T07:36:36.055Z,1004.41
2023-04-12T07:37:35.939Z,1004.41
2023-04-12T07:38:35.895Z,1004.39
2023-04-12T07:39:35.881Z,1004.38
2023-04-12T07:40:35.827Z,1004.32
2023-04-12T07:41:35.791Z,1004.31
2023-04-12T07:42:35.817Z,1004.28
2023-04-12T07:43:35.728Z,1004.27
2023-04-12T07:44:38.455Z,1004.18
2023-04-12T07:45:35.679Z,1004.20
2023-04-12T07:46:35.648Z,1004.21
2023-04-12T07:47:35.680Z,1004.17
2023-04-12T07:48:36.208Z,1004.14
2023-04-12T07:49:35.565Z,1004.15
2023-04-12T07:50:35.484Z,1004.16
2023-04-12T07:51:35.454Z,1004.14
2023-04-12T07:52:35.427Z,1004.11
2023-04-12T07:53:35.396Z,1004.09
2023-04-12T07:54:35.415Z,1004.15
2023-04-12T07:55:35.566Z,1004.01
2023-04-12T07:56:35.295Z,1004.05
2023-04-12T07:57:35.258Z,1004.02
2023-04-12T07:58:35.235Z,1004.07
2023-04-12T07:59:35.195Z,1004.03
2023-04-12T08:00:35.205Z,1003.98
2023-04-12T08:01:35.371Z,1004.01
2023-04-12T08:02:35.179Z,1004.03
2023-04-12T08:03:35.255Z,1003.98
2023-04-12T08:04:35.027Z,1003.97
2023-04-12T08:05:35.034Z,1003.94
2023-04-12T08:06:34.954Z,1003.90
2023-04-12T08:07:34.919Z,1003.95
2023-04-12T08:08:34.882Z,1003.94
2023-04-12T08:09:34.914Z,1003.93
2023-04-12T08:10:34.888Z,1003.85
2023-04-12T08:11:34.843Z,1003.87
2023-04-12T08:12:34.765Z,1003.87
2023-04-12T08:13:34.724Z,1003.84
2023-04-12T08:14:34.747Z,1003.83
2023-04-12T08:15:34.691Z,1003.86
2023-04-12T08:16:34.692Z,1003.77
2023-04-12T08:17:34.672Z,1003.78
2023-04-12T08:18:34.552Z,1003.78
2023-04-12T08:19:34.567Z,1003.82
2023-04-12T08:20:34.486Z,1003.70
2023-04-12T08:21:34.442Z,1003.75
2023-04-12T08:22:34.446Z,1003.72
2023-04-12T08:23:34.392Z,1003.73
2023-04-12T08:24:34.358Z,1003.70
2023-04-12T08:25:34.421Z,1003.70
2023-04-12T08:26:34.279Z,1003.66
2023-04-12T08:27:34.247Z,1003.68
2023-04-12T08:28:34.217Z,1003.64
2023-04-12T08:29:34.265Z,1003.63
2023-04-12T08:30:34.150Z,1003.62
2023-04-12T08:31:34.197Z,1003.62
2023-04-12T08:32:34.111Z,1003.62
2023-04-12T08:33:34.055Z,1003.66
2023-04-12T08:34:34.020Z,1003.62
2023-04-12T08:35:34.007Z,1003.60
2023-04-12T08:36:33.951Z,1003.62
2023-04-12T08:37:33.982Z,1003.62
2023-04-12T08:38:45.106Z,1003.59
2023-04-12T08:39:33.855Z,1003.62
2023-04-12T08:40:33.821Z,1003.59
2023-04-12T08:41:33.786Z,1003.61
2023-04-12T08:42:34.254Z,1003.60
2023-04-12T08:43:33.780Z,1003.59
2023-04-12T08:44:33.685Z,1003.58
2023-04-12T08:45:33.658Z,1003.57
2023-04-12T08:46:33.671Z,1003.53
2023-04-12T08:47:33.641Z,1003.54
2023-04-12T08:48:33.719Z,1003.53
2023-04-12T08:49:33.574Z,1003.48
2023-04-12T08:50:33.492Z,1003.53
2023-04-12T08:51:33.470Z,1003.46
2023-04-12T08:52:33.426Z,1003.44
2023-04-12T08:53:33.414Z,1003.47
2023-04-12T08:54:33.369Z,1003.41
2023-04-12T08:55:33.380Z,1003.48
2023-04-12T08:56:33.351Z,1003.38
2023-04-12T08:57:33.279Z,1003.42
2023-04-12T08:58:33.233Z,1003.39
2023-04-12T08:59:33.210Z,1003.38
2023-04-12T09:00:33.224Z,1003.39
2023-04-12T09:01:33.207Z,1003.32
2023-04-12T09:02:33.180Z,1003.37
2023-04-12T09:03:33.824Z,1003.32
2023-04-12T09:04:33.115Z,1003.34
2023-04-12T09:05:33.006Z,1003.33
2023-04-12T09:06:32.969Z,1003.32
2023-04-12T09:07:33.109Z,1003.21
2023-04-12T09:08:32.902Z,1003.21
2023-04-12T09:09:32.880Z,1003.18
2023-04-12T09:10:32.850Z,1003.19
2023-04-12T09:11:32.812Z,1003.15
2023-04-12T09:12:32.783Z,1003.13
2023-04-12T09:13:32.836Z,1003.18
2023-04-12T09:14:32.706Z,1003.13
2023-04-12T09:15:32.678Z,1003.11
2023-04-12T09:16:32.702Z,1003.05
2023-04-12T09:17:32.621Z,1003.09
2023-04-12T09:18:32.589Z,1003.04
2023-04-12T09:19:32.634Z,1003.03
2023-04-12T09:20:32.536Z,1003.03
2023-04-12T09:21:32.499Z,1003.08
2023-04-12T09:22:32.445Z,1002.95
2023-04-12T09:23:32.432Z,1002.98
2023-04-12T09:24:32.388Z,1002.92
2023-04-12T09:25:32.435Z,1002.86
2023-04-12T09:26:32.334Z,1002.84
2023-04-12T09:27:32.758Z,1002.86
2023-04-12T09:28:32.259Z,1002.83
2023-04-12T09:29:32.232Z,1002.86
2023-04-12T09:30:32.207Z,1002.79
2023-04-12T09:31:32.336Z,1002.74
2023-04-12T09:32:32.119Z,1002.73
2023-04-12T09:33:32.098Z,1002.77
2023-04-12T09:34:32.132Z,1002.71
2023-04-12T09:35:32.112Z,1002.73
2023-04-12T09:36:32.046Z,1002.60
2023-04-12T09:37:32.042Z,1002.61
2023-04-12T09:38:31.964Z,1002.65
2023-04-12T09:39:31.931Z,1002.62
2023-04-12T09:40:31.899Z,1002.60
2023-04-12T09:41:31.860Z,1002.48
2023-04-12T09:42:34.462Z,1002.53
2023-04-12T09:43:32.146Z,1002.49
2023-04-12T09:44:31.809Z,1002.49
2023-04-12T09:45:31.724Z,1002.42
2023-04-12T09:46:31.744Z,1002.45
2023-04-12T09:47:31.696Z,1002.40
2023-04-12T09:48:31.659Z,1002.32
2023-04-12T09:49:31.646Z,1002.37
2023-04-12T09:50:31.567Z,1002.35
2023-04-12T09:51:31.527Z,1002.32
2023-04-12T09:52:32.410Z,1002.31
2023-04-12T09:53:31.455Z,1002.28
2023-04-12T09:54:31.433Z,1002.26
2023-04-12T09:55:31.583Z,1002.18
2023-04-12T09:56:31.361Z,1002.20
2023-04-12T09:57:31.347Z,1002.16
2023-04-12T09:58:31.745Z,1002.16
2023-04-12T09:59:31.293Z,1002.11
2023-04-12T10:00:31.260Z,1002.10
2023-04-12T10:01:31.285Z,1002.02
2023-04-12T10:02:31.329Z,1002.01
2023-04-12T10:03:31.323Z,1002.09
2023-04-12T10:04:31.227Z,1002.00
2023-04-12T10:05:31.420Z,1001.98
2023-04-12T10:06:31.041Z,1001.94
2023-04-12T10:07:31.070Z,1001.89
2023-04-12T10:08:30.982Z,1001.85
2023-04-12T10:09:30.987Z,1001.88
2023-04-12T10:10:30.923Z,1001.78
2023-04-12T10:11:30.881Z,1001.82
2023-04-12T10:12:30.875Z,1001.79
2023-04-12T10:13:30.873Z,1001.78
2023-04-12T10:14:30.789Z,1001.71
2023-04-12T10:15:30.774Z,1001.72
2023-04-12T10:16:30.801Z,1001.76
2023-04-12T10:17:30.705Z,1001.70
2023-04-12T10:18:30.664Z,1001.65
2023-04-12T10:19:30.700Z,1001.61
2023-04-12T10:20:30.603Z,1001.63
2023-04-12T10:21:30.596Z,1001.62
2023-04-12T10:22:30.561Z,1001.56
2023-04-12T10:23:30.510Z,1001.60
2023-04-12T10:24:30.497Z,1001.49
2023-04-12T10:25:30.524Z,1001.43
2023-04-12T10:26:30.437Z,1001.51
2023-04-12T10:27:30.391Z,1001.52
2023-04-12T10:28:30.385Z,1001.50
2023-04-12T10:29:30.322Z,1001.50
2023-04-12T10:30:30.283Z,1001.47
2023-04-12T10:31:30.374Z,1001.50
2023-04-12T10:32:30.285Z,1001.43
2023-04-12T10:33:30.225Z,1001.43
2023-04-12T10:34:30.197Z,1001.43
2023-04-12T10:35:30.187Z,1001.42
2023-04-12T10:36:30.199Z,1001.41
2023-04-12T10:37:30.133Z,1001.38
2023-04-12T10:38:30.053Z,1001.30
2023-04-12T10:39:30.009Z,1001.37
2023-04-12T10:40:29.995Z,1001.28
2023-04-12T10:41:29.988Z,1001.27
2023-04-12T10:42:29.921Z,1001.28
2023-04-12T10:43:29.956Z,1001.22
2023-04-12T10:44:29.862Z,1001.21
2023-04-12T10:45:29.818Z,1001.19
2023-04-12T10:46:29.921Z,1001.25
2023-04-12T10:47:29.938Z,1001.24
2023-04-12T10:48:29.805Z,1001.22
2023-04-12T10:49:29.783Z,1001.19
2023-04-12T10:50:29.752Z,1001.15
2023-04-12T10:51:29.655Z,1001.19
2023-04-12T10:52:29.614Z,1001.10
2023-04-12T10:53:29.572Z,1001.09
2023-04-12T10:54:29.576Z,1001.12
2023-04-12T10:55:29.657Z,1001.07
2023-04-12T10:56:31.586Z,1001.06
2023-04-12T10:57:29.455Z,1001.00
2023-04-12T10:58:29.474Z,1000.95
2023-04-12T10:59:41.083Z,1000.90
2023-04-12T11:00:29.435Z,1000.93
2023-04-12T11:01:29.549Z,1000.88
2023-04-12T11:02:29.570Z,1001.04
2023-04-12T11:03:29.353Z,1000.89
2023-04-12T11:04:29.347Z,1000.92
2023-04-12T11:05:29.210Z,1000.94
2023-04-12T11:06:29.189Z,1000.90
2023-04-12T11:07:29.213Z,1000.88
2023-04-12T11:08:29.136Z,1000.87
2023-04-12T11:09:29.075Z,1000.79
2023-04-12T11:10:29.040Z,1000.82
2023-04-12T11:11:29.042Z,1000.86
2023-04-12T11:12:28.993Z,1000.75
2023-04-12T11:13:29.465Z,1000.77
2023-04-12T11:14:28.928Z,1000.71
2023-04-12T11:15:29.397Z,1000.71
2023-04-12T11:16:28.899Z,1000.75
2023-04-12T11:17:28.897Z,1000.69
2023-04-12T11:18:28.922Z,1000.72
2023-04-12T11:19:28.861Z,1000.73
2023-04-12T11:20:28.750Z,1000.71
2023-04-12T11:21:28.735Z,1000.64
2023-04-12T11:22:29.465Z,1000.57
2023-04-12T11:23:28.734Z,1000.54
2023-04-12T11:24:29.430Z,1000.53
2023-04-12T11:25:28.842Z,1000.61
2023-04-12T11:26:28.566Z,1000.56
2023-04-12T11:27:28.524Z,1000.59
2023-04-12T11:28:30.357Z,1000.57
2023-04-12T11:29:28.507Z,1000.53
2023-04-12T11:30:28.460Z,1000.48
2023-04-12T11:31:28.474Z,1000.50
2023-04-12T11:32:29.330Z,1000.48
2023-04-12T11:33:28.357Z,1000.45
2023-04-12T11:34:28.343Z,1000.45
2023-04-12T11:35:28.291Z,1000.45
2023-04-12T11:36:28.254Z,1000.44
2023-04-12T11:37:28.263Z,1000.41
2023-04-12T11:38:28.180Z,1000.38
2023-04-12T11:39:29.098Z,1000.32
2023-04-12T11:40:28.130Z,1000.32
2023-04-12T11:41:28.098Z,1000.26
2023-04-12T11:42:28.066Z,1000.25
2023-04-12T11:43:28.090Z,1000.23
2023-04-12T11:44:28.010Z,1000.23
2023-04-12T11:45:27.989Z,1000.17
2023-04-12T11:46:27.980Z,1000.24
2023-04-12T11:47:28.030Z,1000.21
2023-04-12T11:48:27.893Z,1000.08
2023-04-12T11:49:27.918Z,1000.08
2023-04-12T11:50:27.841Z,1000.02
2023-04-12T11:51:29.914Z,1000.04
2023-04-12T11:52:27.843Z,1000.09
2023-04-12T11:53:27.753Z,1000.01
2023-04-12T11:54:27.723Z,999.96
2023-04-12T11:55:27.757Z,1000.07
2023-04-12T11:56:27.670Z,1000.02
2023-04-12T11:57:27.642Z,999.89
2023-04-12T11:58:27.613Z,999.91
2023-04-12T11:59:27.583Z,999.98
2023-04-12T12:00:27.552Z,999.94
2023-04-12T12:01:27.573Z,999.91
2023-04-12T12:02:31.705Z,999.81
2023-04-12T12:03:27.594Z,999.87
2023-04-12T12:04:27.596Z,999.79
2023-04-12T12:05:27.594Z,999.77
2023-04-12T12:06:27.538Z,999.81
2023-04-12T12:07:27.677Z,999.76
2023-04-12T12:08:27.333Z,999.70
2023-04-12T12:09:27.349Z,999.77
2023-04-12T12:10:43.698Z,999.66
2023-04-12T12:11:27.260Z,999.67
2023-04-12T12:12:27.270Z,999.74
2023-04-12T12:13:27.207Z,999.69
2023-04-12T12:14:27.174Z,999.68
2023-04-12T12:15:27.221Z,999.72
2023-04-12T12:16:27.148Z,999.69
2023-04-12T12:17:27.134Z,999.66
2023-04-12T12:18:27.056Z,999.70
2023-04-12T12:19:27.173Z,999.65
2023-04-12T12:20:27.002Z,999.57
2023-04-12T12:21:26.974Z,999.55
2023-04-12T12:22:26.951Z,999.54
2023-04-12T12:23:26.976Z,999.52
2023-04-12T12:24:26.892Z,999.52
2023-04-12T12:25:26.938Z,999.56
2023-04-12T12:26:26.848Z,999.56
2023-04-12T12:27:26.822Z,999.57
2023-04-12T12:28:26.793Z,999.54
2023-04-12T12:29:26.753Z,999.56
2023-04-12T12:30:26.847Z,999.58
2023-04-12T12:31:26.774Z,999.51
2023-04-12T12:32:26.732Z,999.44
2023-04-12T12:33:38.901Z,999.41
2023-04-12T12:34:26.636Z,999.44
2023-04-12T12:35:26.609Z,999.40
2023-04-12T12:36:26.625Z,999.36
2023-04-12T12:37:26.549Z,999.43
2023-04-12T12:38:32.157Z,999.37
2023-04-12T12:39:26.491Z,999.33
2023-04-12T12:40:26.489Z,999.30
2023-04-12T12:41:26.445Z,999.25
2023-04-12T12:42:26.456Z,999.29
2023-04-12T12:43:26.421Z,999.24
2023-04-12T12:44:26.365Z,999.26
2023-04-12T12:45:26.337Z,999.26
2023-04-12T12:46:31.495Z,999.31
2023-04-12T12:47:27.035Z,999.20
2023-04-12T12:48:26.398Z,999.28
2023-04-12T12:49:26.234Z,999.20
2023-04-12T12:50:26.209Z,999.19
2023-04-12T12:51:26.221Z,999.19
2023-04-12T12:52:26.158Z,999.16
2023-04-12T12:53:26.130Z,999.19
2023-04-12T12:55:26.188Z,999.07
2023-04-12T12:56:26.043Z,999.09
2023-04-12T12:57:26.008Z,999.09
2023-04-12T12:58:25.992Z,999.10
2023-04-12T12:59:26.202Z,999.06
2023-04-12T13:00:25.946Z,999.04
2023-04-12T13:01:26.011Z,999.05
2023-04-12T13:02:25.962Z,999.07
2023-04-12T13:03:26.044Z,999.05
2023-04-12T13:04:25.998Z,999.02
2023-04-12T13:05:25.883Z,999.02
2023-04-12T13:06:25.868Z,998.92
2023-04-12T13:07:26.009Z,998.94
2023-04-12T13:08:25.721Z,998.96
2023-04-12T13:09:25.717Z,998.96
2023-04-12T13:10:25.709Z,998.94
2023-04-12T13:11:25.719Z,998.87
2023-04-12T13:12:25.606Z,998.85
2023-04-12T13:13:25.581Z,998.83
2023-04-12T13:14:25.597Z,998.81
2023-04-12T13:15:25.594Z,998.85
2023-04-12T13:16:26.923Z,998.79
2023-04-12T13:17:25.580Z,998.80
2023-04-12T13:18:25.453Z,998.79
2023-04-12T13:19:25.601Z,998.77
2023-04-12T13:20:25.391Z,998.76
2023-04-12T13:21:25.366Z,998.77
2023-04-12T13:22:25.351Z,998.74
2023-04-12T13:23:25.368Z,998.74
2023-04-12T13:24:25.287Z,998.72
2023-04-12T13:25:25.260Z,998.83
2023-04-12T13:26:25.220Z,998.71
2023-04-12T13:27:25.201Z,998.71
2023-04-12T13:28:25.178Z,998.69
2023-04-12T13:29:25.220Z,998.65
2023-04-12T13:30:25.114Z,998.66
2023-04-12T13:31:25.105Z,998.70
2023-04-12T13:32:25.136Z,998.61
2023-04-12T13:33:25.073Z,998.62
2023-04-12T13:34:25.078Z,998.57
2023-04-12T13:35:24.995Z,998.53
2023-04-12T13:36:24.956Z,998.60
2023-04-12T13:37:24.926Z,998.56
2023-04-12T13:38:24.952Z,998.54
2023-04-12T13:39:24.864Z,998.79
2023-04-12T13:40:24.909Z,998.59
2023-04-12T13:41:24.844Z,998.49
2023-04-12T13:42:24.781Z,998.49
2023-04-12T13:43:24.746Z,998.46
2023-04-12T13:44:24.716Z,998.46
2023-04-12T13:45:24.771Z,998.49
2023-04-12T13:46:24.697Z,998.47
2023-04-12T13:47:24.650Z,998.50
2023-04-12T13:48:24.621Z,998.46
2023-04-12T13:49:24.588Z,998.52
2023-04-12T13:50:24.563Z,998.51
2023-04-12T13:51:24.617Z,998.51
2023-04-12T13:52:24.492Z,998.40
2023-04-12T13:53:24.482Z,998.41
2023-04-12T13:54:24.459Z,998.38
2023-04-12T13:55:24.434Z,998.41
2023-04-12T13:56:24.376Z,998.38
2023-04-12T13:57:24.409Z,998.30
2023-04-12T13:58:24.333Z,998.33
2023-04-12T13:59:24.304Z,998.37
2023-04-12T14:00:24.263Z,998.35
2023-04-12T14:01:24.279Z,998.31
2023-04-12T14:02:24.323Z,998.34
2023-04-12T14:03:24.207Z,998.36
2023-04-12T14:04:24.191Z,998.36
2023-04-12T14:05:24.300Z,998.36
2023-04-12T14:06:24.092Z,998.31
2023-04-12T14:07:24.116Z,998.31
2023-04-12T14:08:24.031Z,998.32
2023-04-12T14:09:23.999Z,998.36
2023-04-12T14:10:23.974Z,998.35
2023-04-12T14:11:23.941Z,998.32
2023-04-12T14:12:23.915Z,998.35
2023-04-12T14:13:23.925Z,998.33
2023-04-12T14:14:23.900Z,998.36
2023-04-12T14:15:23.814Z,998.38
2023-04-12T14:16:23.796Z,998.50
2023-04-12T14:17:23.886Z,998.44
2023-04-12T14:18:23.820Z,998.49
2023-04-12T14:19:23.755Z,998.50
2023-04-12T14:20:23.686Z,998.49
2023-04-12T14:21:24.418Z,998.51
2023-04-12T14:22:29.353Z,998.52
2023-04-12T14:23:26.066Z,998.55
2023-04-12T14:24:23.573Z,998.51
2023-04-12T14:25:23.573Z,998.59
2023-04-12T14:26:23.510Z,998.57
2023-04-12T14:27:23.454Z,998.51
2023-04-12T14:28:23.432Z,998.49
2023-04-12T14:29:23.397Z,998.57
2023-04-12T14:30:23.392Z,998.53
2023-04-12T14:31:23.510Z,998.53
2023-04-12T14:32:23.338Z,998.57
2023-04-12T14:33:23.281Z,998.49
2023-04-12T14:34:23.267Z,998.54
2023-04-12T14:35:23.218Z,998.57
2023-04-12T14:36:23.188Z,998.50
2023-04-12T14:42:16.706Z,998.54
2023-04-12T14:42:58.536Z,998.54
2023-04-12T14:43:58.613Z,998.50
2023-04-12T14:44:58.423Z,998.52
2023-04-12T14:45:58.428Z,998.55
2023-04-12T14:46:58.456Z,998.54
2023-04-12T14:47:58.379Z,998.53
2023-04-12T14:48:58.916Z,998.54
2023-04-12T14:49:58.273Z,998.54
2023-04-12T14:50:58.236Z,998.52
2023-04-12T14:51:59.617Z,998.54
2023-04-12T14:52:58.173Z,998.55
2023-04-12T14:53:58.322Z,998.49
2023-04-12T14:54:58.176Z,998.51
2023-04-12T14:55:58.182Z,998.53
2023-04-12T14:56:58.049Z,998.56
2023-04-12T14:57:58.022Z,998.55
2023-04-12T14:58:58.045Z,998.52
2023-04-12T14:59:58.025Z,998.53
2023-04-12T15:00:58.550Z,998.58
2023-04-12T15:01:57.985Z,998.55
2023-04-12T15:02:57.984Z,998.57
2023-04-12T15:03:58.397Z,998.57
2023-04-12T15:04:57.938Z,998.55
2023-04-12T15:05:57.774Z,998.58
2023-04-12T15:06:57.801Z,998.58
2023-04-12T15:07:57.723Z,998.58
2023-04-12T15:08:57.675Z,998.59
2023-04-12T15:09:57.640Z,998.63
2023-04-12T15:10:57.628Z,998.62
2023-04-12T15:11:57.591Z,998.63
2023-04-12T15:12:57.638Z,998.60
2023-04-12T15:13:57.671Z,998.61
2023-04-12T15:14:57.508Z,998.62
2023-04-12T15:15:57.479Z,998.63
2023-04-12T15:16:57.446Z,998.57
2023-04-12T15:17:57.475Z,998.63
2023-04-12T15:18:58.880Z,998.60
2023-04-12T15:19:57.344Z,998.66
2023-04-12T15:20:57.308Z,998.68
2023-04-12T15:21:57.353Z,998.64
2023-04-12T15:22:57.239Z,998.70
2023-04-12T15:23:57.404Z,998.68
2023-04-12T15:24:57.249Z,998.64
2023-04-12T15:25:57.148Z,998.66
2023-04-12T15:26:57.184Z,998.64
2023-04-12T15:27:57.102Z,998.64
2023-04-12T15:28:57.066Z,998.64
2023-04-12T15:29:57.027Z,998.63
2023-04-12T15:30:56.990Z,998.63
2023-04-12T15:31:57.153Z,998.64
2023-04-12T15:32:57.049Z,998.64
2023-04-12T15:33:57.118Z,998.64
2023-04-12T15:34:56.882Z,998.62
2023-04-12T15:35:56.830Z,998.59
2023-04-12T15:37:00.592Z,998.56
2023-04-12T15:37:56.781Z,998.59
2023-04-12T15:38:56.802Z,998.59
2023-04-12T15:39:56.723Z,998.63
2023-04-12T15:40:56.702Z,998.67
2023-04-12T15:41:56.667Z,998.65
2023-04-12T15:42:56.628Z,998.71
2023-04-12T15:43:56.806Z,998.69
2023-04-12T15:44:56.623Z,998.67
2023-04-12T15:45:56.805Z,998.66
2023-04-12T15:47:07.880Z,998.65
2023-04-12T15:47:56.480Z,998.60
2023-04-12T15:48:56.444Z,998.55
2023-04-12T15:49:56.412Z,998.56
2023-04-12T15:50:56.455Z,998.54
2023-04-12T15:51:56.346Z,998.55
2023-04-12T15:52:56.334Z,998.52
2023-04-12T15:53:56.501Z,998.55
2023-04-12T15:54:56.254Z,998.58
2023-04-12T15:55:56.213Z,998.50
2023-04-12T15:56:56.248Z,998.52
2023-04-12T15:57:56.160Z,998.45
2023-04-12T15:58:56.335Z,998.44
2023-04-12T15:59:56.104Z,998.46
2023-04-12T16:00:56.102Z,998.46
2023-04-12T16:01:56.142Z,998.39
2023-04-12T16:02:56.284Z,998.35
2023-04-12T16:03:56.131Z,998.35
2023-04-12T16:04:56.091Z,998.32
2023-04-12T16:05:55.973Z,998.29
2023-04-12T16:06:55.879Z,998.30
2023-04-12T16:07:55.856Z,998.31
2023-04-12T16:08:56.043Z,998.29
2023-04-12T16:09:55.798Z,998.28
2023-04-12T16:10:55.817Z,998.28
2023-04-12T16:11:55.731Z,998.29
2023-04-12T16:12:55.715Z,998.28
2023-04-12T16:13:55.701Z,998.24
2023-04-12T16:14:55.632Z,998.26
2023-04-12T16:15:55.658Z,998.20
2023-04-12T16:16:56.776Z,998.19
2023-04-12T16:17:55.766Z,998.22
2023-04-12T16:18:55.971Z,998.17
2023-04-12T16:19:55.507Z,998.18
2023-04-12T16:20:55.447Z,998.11
2023-04-12T16:21:55.419Z,998.09
2023-04-12T16:22:55.460Z,998.06
2023-04-12T16:23:55.345Z,998.08
2023-04-12T16:24:55.323Z,998.04
2023-04-12T16:25:55.284Z,998.02
2023-04-12T16:26:55.275Z,998.04
2023-04-12T16:27:55.235Z,998.03
2023-04-12T16:28:55.514Z,998.01
2023-04-12T16:29:55.166Z,997.99
2023-04-12T16:30:55.198Z,998.00
2023-04-12T16:31:55.161Z,997.95
2023-04-12T16:32:55.093Z,997.93
2023-04-12T16:33:55.145Z,997.95
2023-04-12T16:34:55.019Z,997.95
2023-04-12T16:35:54.990Z,997.94
2023-04-12T16:36:55.001Z,997.94
2023-04-12T16:37:54.973Z,997.94
2023-04-12T16:38:55.216Z,997.93
2023-04-12T16:39:54.996Z,997.87
2023-04-12T16:40:54.829Z,997.93
2023-04-12T16:41:54.806Z,997.93
2023-04-12T16:42:54.766Z,997.93
2023-04-12T16:43:54.726Z,997.97
2023-04-12T16:44:54.792Z,997.96
2023-04-12T16:45:54.677Z,997.93
2023-04-12T16:46:54.692Z,997.95
2023-04-12T16:47:54.647Z,997.90
2023-04-12T16:48:54.669Z,997.85
2023-04-12T16:49:54.533Z,997.84
2023-04-12T16:50:54.593Z,997.77
2023-04-12T16:51:54.465Z,997.78
2023-04-12T16:52:54.443Z,997.72
2023-04-12T16:53:54.411Z,997.70
2023-04-12T16:54:54.384Z,997.67
2023-04-12T16:55:56.141Z,997.67
2023-04-12T16:56:54.364Z,997.63
2023-04-12T16:57:54.282Z,997.55
2023-04-12T16:58:54.301Z,997.58
2023-04-12T16:59:54.221Z,997.57
2023-04-12T17:00:54.195Z,997.51
2023-04-12T17:01:54.207Z,997.54
2023-04-12T17:02:54.313Z,997.56
2023-04-12T17:03:54.167Z,997.61
2023-04-12T17:04:54.073Z,997.60
2023-04-12T17:05:54.023Z,997.56
2023-04-12T17:06:54.012Z,997.56
2023-04-12T17:08:02.748Z,997.53
2023-04-12T17:08:53.933Z,997.55
2023-04-12T17:09:53.884Z,997.54
2023-04-12T17:10:53.883Z,997.57
2023-04-12T17:11:53.813Z,997.57
2023-04-12T17:12:53.790Z,997.58
2023-04-12T17:13:53.832Z,997.55
2023-04-12T17:14:53.719Z,997.52
2023-04-12T17:15:53.756Z,997.53
2023-04-12T17:16:53.707Z,997.50
2023-04-12T17:17:53.691Z,997.47
2023-04-12T17:18:54.165Z,997.46
2023-04-12T17:19:53.712Z,997.46
2023-04-12T17:20:53.550Z,997.45
2023-04-12T17:21:53.505Z,997.43
2023-04-12T17:22:53.502Z,997.39
2023-04-12T17:23:53.453Z,997.41
2023-04-12T17:24:53.415Z,997.41
2023-04-12T17:25:53.492Z,997.35
2023-04-12T17:26:53.364Z,997.36
2023-04-12T17:27:53.324Z,997.34
2023-04-12T17:28:53.301Z,997.33
2023-04-12T17:29:53.365Z,997.26
2023-04-12T17:30:53.313Z,997.28
2023-04-12T17:31:55.029Z,997.27
2023-04-12T17:32:53.201Z,997.29
2023-04-12T17:33:53.218Z,997.26
2023-04-12T17:34:53.083Z,997.32
2023-04-12T17:35:53.064Z,997.34
2023-04-12T17:36:53.038Z,997.36
2023-04-12T17:37:53.001Z,997.40
2023-04-12T17:38:54.254Z,997.38
2023-04-12T17:39:52.973Z,997.44
2023-04-12T17:40:52.911Z,997.42
2023-04-12T17:41:52.860Z,997.45
2023-04-12T17:42:52.849Z,997.44
2023-04-12T17:43:52.910Z,997.41
2023-04-12T17:44:52.908Z,997.40
2023-04-12T17:45:52.786Z,997.40
2023-04-12T17:46:52.730Z,997.36
2023-04-12T17:47:52.758Z,997.35
2023-04-12T17:48:52.641Z,997.31
2023-04-12T17:49:52.728Z,997.31
2023-04-12T17:50:52.586Z,997.26
2023-04-12T17:51:52.592Z,997.26
2023-04-12T17:52:52.499Z,997.27
2023-04-12T17:53:52.459Z,997.27
2023-04-12T17:54:52.560Z,997.26
2023-04-12T17:55:52.464Z,997.25
2023-04-12T17:56:52.473Z,997.21
2023-04-12T17:57:52.357Z,997.24
2023-04-12T17:58:52.397Z,997.25
2023-04-12T17:59:52.341Z,997.30
2023-04-12T18:00:52.249Z,997.26
2023-04-12T18:01:52.324Z,997.27
2023-04-12T18:02:52.327Z,997.28
2023-04-12T18:03:52.386Z,997.26
2023-04-12T18:04:52.131Z,997.28
2023-04-12T18:05:52.223Z,997.27
2023-04-12T18:06:52.074Z,997.23
2023-04-12T18:07:52.042Z,997.19
2023-04-12T18:08:52.005Z,997.18
2023-04-12T18:09:51.947Z,997.19
2023-04-12T18:10:51.911Z,997.19
2023-04-12T18:11:52.079Z,997.17
2023-04-12T18:12:51.892Z,997.20
2023-04-12T18:13:51.824Z,997.22
2023-04-12T18:14:51.815Z,997.20
2023-04-12T18:15:51.844Z,997.25
2023-04-12T18:16:51.732Z,997.21
2023-04-12T18:17:51.777Z,997.23
2023-04-12T18:18:51.664Z,997.19
2023-04-12T18:19:51.627Z,997.15
2023-04-12T18:20:51.672Z,997.23
2023-04-12T18:21:51.570Z,997.20
2023-04-12T18:22:51.573Z,997.20
2023-04-12T18:23:51.576Z,997.16
2023-04-12T18:24:51.453Z,997.14
2023-04-12T18:25:51.445Z,997.13
2023-04-12T18:26:51.410Z,997.08
2023-04-12T18:27:51.356Z,997.13
2023-04-12T18:28:51.359Z,997.12
2023-04-12T18:29:51.381Z,997.09
2023-04-12T18:30:51.284Z,997.10
2023-04-12T18:31:51.340Z,997.07
2023-04-12T18:32:51.234Z,997.06
2023-04-12T18:33:51.211Z,997.06
2023-04-12T18:34:51.146Z,997.09
2023-04-12T18:35:51.208Z,997.10
2023-04-12T18:36:51.097Z,997.11
2023-04-12T18:37:51.036Z,997.06
2023-04-12T18:38:51.004Z,997.04
2023-04-12T18:39:53.071Z,997.04
2023-04-12T18:40:50.934Z,997.05
2023-04-12T18:41:51.138Z,997.06
2023-04-12T18:42:50.896Z,997.06
2023-04-12T18:43:50.827Z,997.02
2023-04-12T18:44:50.803Z,997.10
2023-04-12T18:45:50.839Z,997.11
2023-04-12T18:46:50.757Z,997.11
2023-04-12T18:47:50.875Z,997.13
2023-04-12T18:48:50.712Z,997.12
2023-04-12T18:49:50.647Z,997.14
2023-04-12T18:50:50.616Z,997.15
2023-04-12T18:51:50.669Z,997.13
2023-04-12T18:52:50.596Z,997.13
2023-04-12T18:53:50.667Z,997.16
2023-04-12T18:54:50.502Z,997.15
2023-04-12T18:55:50.479Z,997.13
2023-04-12T18:56:50.481Z,997.15
2023-04-12T18:57:50.416Z,997.14
2023-04-12T18:58:55.140Z,997.16
2023-04-12T18:59:50.468Z,997.08
2023-04-12T19:00:50.310Z,997.09
2023-04-12T19:01:50.310Z,997.08
2023-04-12T19:02:50.254Z,997.05
2023-04-12T19:03:50.253Z,997.03
2023-04-12T19:04:50.170Z,997.03
2023-04-12T19:05:50.205Z,997.00
2023-04-12T19:06:50.082Z,996.98
2023-04-12T19:07:50.060Z,997.01
2023-04-12T19:08:50.012Z,996.95
2023-04-12T19:09:49.977Z,997.00
2023-04-12T19:10:49.962Z,996.94
2023-04-12T19:11:49.991Z,996.92
2023-04-12T19:12:49.874Z,996.92
2023-04-12T19:13:49.870Z,996.95
2023-04-12T19:14:49.810Z,996.96
2023-04-12T19:15:49.891Z,996.91
2023-04-12T19:16:49.756Z,996.92
2023-04-12T19:17:49.796Z,996.90
2023-04-12T19:18:49.688Z,996.93
2023-04-12T19:19:49.647Z,996.97
2023-04-12T19:20:49.711Z,996.99
2023-04-12T19:21:49.597Z,996.98
2023-04-12T19:22:49.574Z,996.96
2023-04-12T19:23:49.559Z,996.89
2023-04-12T19:24:49.540Z,996.89
2023-04-12T19:25:49.459Z,996.82
2023-04-12T19:26:49.556Z,996.82
2023-04-12T19:27:49.398Z,996.78
2023-04-12T19:28:49.345Z,996.76
2023-04-12T19:29:49.332Z,996.78
2023-04-12T19:30:49.311Z,996.79
2023-04-12T19:31:49.389Z,996.76
2023-04-12T19:32:49.338Z,996.78
2023-04-12T19:33:49.191Z,996.75
2023-04-12T19:34:49.151Z,996.78
2023-04-12T19:35:49.125Z,996.75
2023-04-12T19:36:49.113Z,996.79
2023-04-12T19:37:49.147Z,996.76
2023-04-12T19:38:49.821Z,996.79
2023-04-12T19:39:49.028Z,996.77